sensor_id;sensor_type;location;lat;lon;timestamp;P1;durP1;ratioP1;P2;durP2;ratioP2
20671;SDS011;10495;50.922;4.760;2023-04-25T00:02:25;7.47;;;4.30;;
20671;SDS011;10495;50.922;4.760;2023-04-25T00:04:50;7.47;;;4.23;;
20671;SDS011;10495;50.922;4.760;2023-04-25T00:07:17;9.57;;;4.17;;
20671;SDS011;10495;50.922;4.760;2023-04-25T00:09:42;9.83;;;4.53;;
20671;SDS011;10495;50.922;4.760;2023-04-25T00:12:08;7.77;;;4.00;;
20671;SDS011;10495;50.922;4.760;2023-04-25T00:14:34;11.70;;;4.50;;
20671;SDS011;10495;50.922;4.760;2023-04-25T00:17:00;9.70;;;3.87;;
20671;SDS011;10495;50.922;4.760;2023-04-25T00:19:26;6.57;;;4.13;;
20671;SDS011;10495;50.922;4.760;2023-04-25T00:21:53;10.10;;;4.10;;
20671;SDS011;10495;50.922;4.760;2023-04-25T00:24:20;7.23;;;3.90;;
20671;SDS011;10495;50.922;4.760;2023-04-25T00:26:45;9.17;;;4.67;;
20671;SDS011;10495;50.922;4.760;2023-04-25T00:29:11;7.97;;;4.30;;
20671;SDS011;10495;50.922;4.760;2023-04-25T00:31:37;8.07;;;4.83;;
20671;SDS011;10495;50.922;4.760;2023-04-25T00:34:03;5.53;;;3.93;;
20671;SDS011;10495;50.922;4.760;2023-04-25T00:36:28;14.17;;;5.97;;
20671;SDS011;10495;50.922;4.760;2023-04-25T00:38:55;10.53;;;4.57;;
20671;SDS011;10495;50.922;4.760;2023-04-25T00:41:20;8.10;;;4.37;;
20671;SDS011;10495;50.922;4.760;2023-04-25T00:43:47;9.13;;;4.00;;
20671;SDS011;10495;50.922;4.760;2023-04-25T00:46:13;6.33;;;4.20;;
20671;SDS011;10495;50.922;4.760;2023-04-25T00:48:39;9.47;;;4.07;;
20671;SDS011;10495;50.922;4.760;2023-04-25T00:51:05;12.37;;;4.40;;
20671;SDS011;10495;50.922;4.760;2023-04-25T00:53:31;11.63;;;4.80;;
20671;SDS011;10495;50.922;4.760;2023-04-25T00:55:57;8.43;;;4.70;;
20671;SDS011;10495;50.922;4.760;2023-04-25T00:58:23;9.33;;;3.77;;
20671;SDS011;10495;50.922;4.760;2023-04-25T01:00:49;6.63;;;3.50;;
20671;SDS011;10495;50.922;4.760;2023-04-25T01:03:17;7.60;;;4.43;;
20671;SDS011;10495;50.922;4.760;2023-04-25T01:05:46;8.07;;;4.40;;
20671;SDS011;10495;50.922;4.760;2023-04-25T01:08:13;8.13;;;4.43;;
20671;SDS011;10495;50.922;4.760;2023-04-25T01:10:39;10.03;;;5.03;;
20671;SDS011;10495;50.922;4.760;2023-04-25T01:13:05;10.50;;;5.03;;
20671;SDS011;10495;50.922;4.760;2023-04-25T01:15:30;9.30;;;4.90;;
20671;SDS011;10495;50.922;4.760;2023-04-25T01:17:57;10.03;;;4.83;;
20671;SDS011;10495;50.922;4.760;2023-04-25T01:20:23;6.63;;;4.07;;
20671;SDS011;10495;50.922;4.760;2023-04-25T01:22:52;8.00;;;4.33;;
20671;SDS011;10495;50.922;4.760;2023-04-25T01:25:20;7.47;;;4.33;;
20671;SDS011;10495;50.922;4.760;2023-04-25T01:27:46;13.97;;;5.07;;
20671;SDS011;10495;50.922;4.760;2023-04-25T01:30:12;8.30;;;4.90;;
20671;SDS011;10495;50.922;4.760;2023-04-25T01:32:38;10.77;;;5.60;;
20671;SDS011;10495;50.922;4.760;2023-04-25T01:35:06;10.13;;;5.07;;
20671;SDS011;10495;50.922;4.760;2023-04-25T01:37:37;13.30;;;4.97;;
20671;SDS011;10495;50.922;4.760;2023-04-25T01:40:03;10.00;;;4.33;;
20671;SDS011;10495;50.922;4.760;2023-04-25T01:42:32;10.47;;;4.00;;
20671;SDS011;10495;50.922;4.760;2023-04-25T01:44:58;9.27;;;4.37;;
20671;SDS011;10495;50.922;4.760;2023-04-25T01:47:24;9.47;;;4.67;;
20671;SDS011;10495;50.922;4.760;2023-04-25T01:49:49;9.77;;;4.87;;
20671;SDS011;10495;50.922;4.760;2023-04-25T01:52:15;10.33;;;4.67;;
20671;SDS011;10495;50.922;4.760;2023-04-25T01:54:41;12.37;;;5.47;;
20671;SDS011;10495;50.922;4.760;2023-04-25T01:57:09;9.67;;;5.37;;
20671;SDS011;10495;50.922;4.760;2023-04-25T01:59:36;9.80;;;5.80;;
20671;SDS011;10495;50.922;4.760;2023-04-25T02:02:02;12.57;;;5.13;;
20671;SDS011;10495;50.922;4.760;2023-04-25T02:04:29;13.07;;;6.30;;
20671;SDS011;10495;50.922;4.760;2023-04-25T02:06:55;9.50;;;4.80;;
20671;SDS011;10495;50.922;4.760;2023-04-25T02:09:20;9.43;;;5.47;;
20671;SDS011;10495;50.922;4.760;2023-04-25T02:11:46;8.13;;;4.17;;
20671;SDS011;10495;50.922;4.760;2023-04-25T02:14:12;12.73;;;5.23;;
20671;SDS011;10495;50.922;4.760;2023-04-25T02:16:37;11.30;;;5.33;;
20671;SDS011;10495;50.922;4.760;2023-04-25T02:19:03;9.40;;;4.97;;
20671;SDS011;10495;50.922;4.760;2023-04-25T02:21:29;10.87;;;5.53;;
20671;SDS011;10495;50.922;4.760;2023-04-25T02:23:55;12.50;;;4.77;;
20671;SDS011;10495;50.922;4.760;2023-04-25T02:26:21;17.83;;;5.87;;
20671;SDS011;10495;50.922;4.760;2023-04-25T02:28:48;9.83;;;4.67;;
20671;SDS011;10495;50.922;4.760;2023-04-25T02:31:15;17.60;;;5.40;;
20671;SDS011;10495;50.922;4.760;2023-04-25T02:33:41;14.67;;;5.80;;
20671;SDS011;10495;50.922;4.760;2023-04-25T02:36:07;14.10;;;5.47;;
20671;SDS011;10495;50.922;4.760;2023-04-25T02:38:32;13.87;;;6.20;;
20671;SDS011;10495;50.922;4.760;2023-04-25T02:40:58;9.13;;;5.30;;
20671;SDS011;10495;50.922;4.760;2023-04-25T02:43:24;12.97;;;6.10;;
20671;SDS011;10495;50.922;4.760;2023-04-25T02:45:50;12.03;;;6.07;;
20671;SDS011;10495;50.922;4.760;2023-04-25T02:48:15;13.43;;;5.20;;
20671;SDS011;10495;50.922;4.760;2023-04-25T02:50:41;17.43;;;6.70;;
20671;SDS011;10495;50.922;4.760;2023-04-25T02:53:07;12.93;;;5.90;;
20671;SDS011;10495;50.922;4.760;2023-04-25T02:55:32;12.43;;;5.73;;
20671;SDS011;10495;50.922;4.760;2023-04-25T02:57:58;14.93;;;5.63;;
20671;SDS011;10495;50.922;4.760;2023-04-25T03:00:24;17.13;;;5.30;;
20671;SDS011;10495;50.922;4.760;2023-04-25T03:02:50;12.77;;;5.17;;
20671;SDS011;10495;50.922;4.760;2023-04-25T03:05:16;11.87;;;4.87;;
20671;SDS011;10495;50.922;4.760;2023-04-25T03:07:42;12.07;;;4.60;;
20671;SDS011;10495;50.922;4.760;2023-04-25T03:10:09;14.37;;;5.10;;
20671;SDS011;10495;50.922;4.760;2023-04-25T03:12:35;17.23;;;5.00;;
20671;SDS011;10495;50.922;4.760;2023-04-25T03:15:01;12.47;;;4.87;;
20671;SDS011;10495;50.922;4.760;2023-04-25T03:17:27;9.10;;;4.30;;
20671;SDS011;10495;50.922;4.760;2023-04-25T03:19:54;12.73;;;4.63;;
20671;SDS011;10495;50.922;4.760;2023-04-25T03:22:20;8.43;;;4.07;;
20671;SDS011;10495;50.922;4.760;2023-04-25T03:24:46;10.57;;;4.70;;
20671;SDS011;10495;50.922;4.760;2023-04-25T03:27:12;11.87;;;3.90;;
20671;SDS011;10495;50.922;4.760;2023-04-25T03:29:38;14.73;;;5.07;;
20671;SDS011;10495;50.922;4.760;2023-04-25T03:32:03;14.67;;;5.60;;
20671;SDS011;10495;50.922;4.760;2023-04-25T03:34:29;12.20;;;4.77;;
20671;SDS011;10495;50.922;4.760;2023-04-25T03:36:55;12.67;;;4.60;;
20671;SDS011;10495;50.922;4.760;2023-04-25T03:39:21;15.37;;;4.37;;
20671;SDS011;10495;50.922;4.760;2023-04-25T03:41:46;15.10;;;5.73;;
20671;SDS011;10495;50.922;4.760;2023-04-25T03:44:12;15.50;;;4.97;;
20671;SDS011;10495;50.922;4.760;2023-04-25T03:46:38;16.53;;;4.90;;
20671;SDS011;10495;50.922;4.760;2023-04-25T03:49:04;16.90;;;4.87;;
20671;SDS011;10495;50.922;4.760;2023-04-25T03:51:29;14.40;;;4.80;;
20671;SDS011;10495;50.922;4.760;2023-04-25T03:53:55;14.50;;;4.83;;
20671;SDS011;10495;50.922;4.760;2023-04-25T03:56:21;13.63;;;5.17;;
20671;SDS011;10495;50.922;4.760;2023-04-25T03:58:47;15.93;;;4.83;;
20671;SDS011;10495;50.922;4.760;2023-04-25T04:01:12;12.27;;;4.27;;
20671;SDS011;10495;50.922;4.760;2023-04-25T04:03:38;16.33;;;5.03;;
20671;SDS011;10495;50.922;4.760;2023-04-25T04:06:04;11.20;;;3.70;;
20671;SDS011;10495;50.922;4.760;2023-04-25T04:08:31;17.07;;;5.00;;
20671;SDS011;10495;50.922;4.760;2023-04-25T04:10:57;14.43;;;4.53;;
20671;SDS011;10495;50.922;4.760;2023-04-25T04:13:25;13.87;;;4.67;;
20671;SDS011;10495;50.922;4.760;2023-04-25T04:15:51;9.20;;;4.03;;
20671;SDS011;10495;50.922;4.760;2023-04-25T04:18:17;15.13;;;4.13;;
20671;SDS011;10495;50.922;4.760;2023-04-25T04:20:43;11.00;;;3.90;;
20671;SDS011;10495;50.922;4.760;2023-04-25T04:23:09;13.77;;;4.20;;
20671;SDS011;10495;50.922;4.760;2023-04-25T04:25:35;10.63;;;4.03;;
20671;SDS011;10495;50.922;4.760;2023-04-25T04:28:01;10.73;;;3.70;;
20671;SDS011;10495;50.922;4.760;2023-04-25T04:30:27;10.00;;;4.00;;
20671;SDS011;10495;50.922;4.760;2023-04-25T04:32:55;8.73;;;4.17;;
20671;SDS011;10495;50.922;4.760;2023-04-25T04:35:21;9.80;;;4.10;;
20671;SDS011;10495;50.922;4.760;2023-04-25T04:37:47;7.07;;;3.27;;
20671;SDS011;10495;50.922;4.760;2023-04-25T04:40:13;7.27;;;3.90;;
20671;SDS011;10495;50.922;4.760;2023-04-25T04:42:42;9.00;;;3.60;;
20671;SDS011;10495;50.922;4.760;2023-04-25T04:45:10;11.23;;;3.37;;
20671;SDS011;10495;50.922;4.760;2023-04-25T04:47:36;11.07;;;4.13;;
20671;SDS011;10495;50.922;4.760;2023-04-25T04:50:02;8.87;;;3.60;;
20671;SDS011;10495;50.922;4.760;2023-04-25T04:52:29;10.37;;;4.20;;
20671;SDS011;10495;50.922;4.760;2023-04-25T04:54:54;8.13;;;3.27;;
20671;SDS011;10495;50.922;4.760;2023-04-25T04:57:20;12.50;;;4.37;;
20671;SDS011;10495;50.922;4.760;2023-04-25T04:59:46;10.33;;;4.00;;
20671;SDS011;10495;50.922;4.760;2023-04-25T05:02:11;11.07;;;4.13;;
20671;SDS011;10495;50.922;4.760;2023-04-25T05:04:37;10.47;;;4.03;;
20671;SDS011;10495;50.922;4.760;2023-04-25T05:07:03;10.03;;;3.80;;
20671;SDS011;10495;50.922;4.760;2023-04-25T05:09:28;7.93;;;4.17;;
20671;SDS011;10495;50.922;4.760;2023-04-25T05:11:54;5.77;;;3.37;;
20671;SDS011;10495;50.922;4.760;2023-04-25T05:14:20;8.73;;;4.20;;
20671;SDS011;10495;50.922;4.760;2023-04-25T05:16:46;9.67;;;4.00;;
20671;SDS011;10495;50.922;4.760;2023-04-25T05:19:12;8.60;;;4.30;;
20671;SDS011;10495;50.922;4.760;2023-04-25T05:21:38;12.33;;;4.50;;
20671;SDS011;10495;50.922;4.760;2023-04-25T05:24:04;14.43;;;4.93;;
20671;SDS011;10495;50.922;4.760;2023-04-25T05:26:29;12.60;;;4.30;;
20671;SDS011;10495;50.922;4.760;2023-04-25T05:28:56;10.13;;;4.37;;
20671;SDS011;10495;50.922;4.760;2023-04-25T05:31:22;16.67;;;5.40;;
20671;SDS011;10495;50.922;4.760;2023-04-25T05:33:48;7.73;;;3.70;;
20671;SDS011;10495;50.922;4.760;2023-04-25T05:36:14;11.70;;;4.90;;
20671;SDS011;10495;50.922;4.760;2023-04-25T05:38:39;10.50;;;3.97;;
20671;SDS011;10495;50.922;4.760;2023-04-25T05:41:05;8.73;;;4.50;;
20671;SDS011;10495;50.922;4.760;2023-04-25T05:43:31;8.30;;;4.00;;
20671;SDS011;10495;50.922;4.760;2023-04-25T05:45:56;13.10;;;4.80;;
20671;SDS011;10495;50.922;4.760;2023-04-25T05:48:22;13.87;;;4.33;;
20671;SDS011;10495;50.922;4.760;2023-04-25T05:50:47;15.70;;;4.20;;
20671;SDS011;10495;50.922;4.760;2023-04-25T05:53:13;6.80;;;3.70;;
20671;SDS011;10495;50.922;4.760;2023-04-25T05:55:39;12.37;;;4.57;;
20671;SDS011;10495;50.922;4.760;2023-04-25T05:58:05;11.03;;;3.80;;
20671;SDS011;10495;50.922;4.760;2023-04-25T06:00:32;14.50;;;4.40;;
20671;SDS011;10495;50.922;4.760;2023-04-25T06:02:57;10.00;;;3.87;;
20671;SDS011;10495;50.922;4.760;2023-04-25T06:05:23;9.37;;;3.60;;
20671;SDS011;10495;50.922;4.760;2023-04-25T06:07:49;10.80;;;4.43;;
20671;SDS011;10495;50.922;4.760;2023-04-25T06:10:14;14.73;;;4.50;;
20671;SDS011;10495;50.922;4.760;2023-04-25T06:12:40;11.40;;;5.03;;
20671;SDS011;10495;50.922;4.760;2023-04-25T06:15:06;13.57;;;4.67;;
20671;SDS011;10495;50.922;4.760;2023-04-25T06:17:32;15.00;;;5.67;;
20671;SDS011;10495;50.922;4.760;2023-04-25T06:19:58;16.97;;;5.40;;
20671;SDS011;10495;50.922;4.760;2023-04-25T06:22:24;14.87;;;4.97;;
20671;SDS011;10495;50.922;4.760;2023-04-25T06:24:49;16.90;;;5.47;;
20671;SDS011;10495;50.922;4.760;2023-04-25T06:27:15;24.23;;;6.27;;
20671;SDS011;10495;50.922;4.760;2023-04-25T06:29:41;14.57;;;6.30;;
20671;SDS011;10495;50.922;4.760;2023-04-25T06:32:06;14.57;;;4.80;;
20671;SDS011;10495;50.922;4.760;2023-04-25T06:34:32;18.17;;;5.60;;
20671;SDS011;10495;50.922;4.760;2023-04-25T06:36:57;11.87;;;4.40;;
20671;SDS011;10495;50.922;4.760;2023-04-25T06:39:23;12.90;;;4.67;;
20671;SDS011;10495;50.922;4.760;2023-04-25T06:41:50;9.80;;;4.93;;
20671;SDS011;10495;50.922;4.760;2023-04-25T06:44:16;14.03;;;5.30;;
20671;SDS011;10495;50.922;4.760;2023-04-25T06:46:41;15.63;;;4.93;;
20671;SDS011;10495;50.922;4.760;2023-04-25T06:49:07;13.03;;;6.00;;
20671;SDS011;10495;50.922;4.760;2023-04-25T06:51:32;11.50;;;5.30;;
20671;SDS011;10495;50.922;4.760;2023-04-25T06:53:58;14.40;;;5.17;;
20671;SDS011;10495;50.922;4.760;2023-04-25T06:56:24;12.97;;;4.97;;
20671;SDS011;10495;50.922;4.760;2023-04-25T06:58:50;13.27;;;4.90;;
20671;SDS011;10495;50.922;4.760;2023-04-25T07:01:16;9.93;;;4.30;;
20671;SDS011;10495;50.922;4.760;2023-04-25T07:03:41;11.60;;;4.80;;
20671;SDS011;10495;50.922;4.760;2023-04-25T07:06:07;11.27;;;4.87;;
20671;SDS011;10495;50.922;4.760;2023-04-25T07:08:32;14.33;;;4.93;;
20671;SDS011;10495;50.922;4.760;2023-04-25T07:10:58;14.87;;;4.47;;
20671;SDS011;10495;50.922;4.760;2023-04-25T07:13:24;17.50;;;5.43;;
20671;SDS011;10495;50.922;4.760;2023-04-25T07:15:49;17.40;;;5.50;;
20671;SDS011;10495;50.922;4.760;2023-04-25T07:18:15;14.23;;;4.73;;
20671;SDS011;10495;50.922;4.760;2023-04-25T07:20:41;11.83;;;4.10;;
20671;SDS011;10495;50.922;4.760;2023-04-25T07:23:06;11.83;;;4.73;;
20671;SDS011;10495;50.922;4.760;2023-04-25T07:25:32;11.53;;;4.13;;
20671;SDS011;10495;50.922;4.760;2023-04-25T07:27:57;11.00;;;3.80;;
20671;SDS011;10495;50.922;4.760;2023-04-25T07:30:23;13.63;;;3.57;;
20671;SDS011;10495;50.922;4.760;2023-04-25T07:32:49;14.57;;;3.93;;
20671;SDS011;10495;50.922;4.760;2023-04-25T07:35:16;10.07;;;3.40;;
20671;SDS011;10495;50.922;4.760;2023-04-25T07:37:42;11.07;;;3.60;;
20671;SDS011;10495;50.922;4.760;2023-04-25T07:40:08;17.53;;;3.60;;
20671;SDS011;10495;50.922;4.760;2023-04-25T07:42:34;8.27;;;3.10;;
20671;SDS011;10495;50.922;4.760;2023-04-25T07:45:00;9.93;;;3.80;;
20671;SDS011;10495;50.922;4.760;2023-04-25T07:47:26;8.97;;;3.60;;
20671;SDS011;10495;50.922;4.760;2023-04-25T07:49:51;7.03;;;3.33;;
20671;SDS011;10495;50.922;4.760;2023-04-25T07:52:17;12.77;;;3.40;;
20671;SDS011;10495;50.922;4.760;2023-04-25T07:54:43;8.30;;;3.37;;
20671;SDS011;10495;50.922;4.760;2023-04-25T07:57:09;10.23;;;3.20;;
20671;SDS011;10495;50.922;4.760;2023-04-25T07:59:34;9.30;;;3.43;;
20671;SDS011;10495;50.922;4.760;2023-04-25T08:02:00;11.47;;;3.33;;
20671;SDS011;10495;50.922;4.760;2023-04-25T08:04:26;9.17;;;3.33;;
20671;SDS011;10495;50.922;4.760;2023-04-25T08:06:52;14.83;;;4.03;;
20671;SDS011;10495;50.922;4.760;2023-04-25T08:09:18;10.73;;;3.40;;
20671;SDS011;10495;50.922;4.760;2023-04-25T08:11:44;10.53;;;3.13;;
20671;SDS011;10495;50.922;4.760;2023-04-25T08:14:11;8.50;;;3.27;;
20671;SDS011;10495;50.922;4.760;2023-04-25T08:16:37;10.90;;;2.90;;
20671;SDS011;10495;50.922;4.760;2023-04-25T08:19:03;8.10;;;3.23;;
20671;SDS011;10495;50.922;4.760;2023-04-25T08:21:28;6.93;;;3.23;;
20671;SDS011;10495;50.922;4.760;2023-04-25T08:23:54;11.00;;;3.43;;
20671;SDS011;10495;50.922;4.760;2023-04-25T08:26:20;8.03;;;2.97;;
20671;SDS011;10495;50.922;4.760;2023-04-25T08:28:46;11.27;;;3.13;;
20671;SDS011;10495;50.922;4.760;2023-04-25T08:31:11;6.63;;;4.00;;
20671;SDS011;10495;50.922;4.760;2023-04-25T08:33:37;10.23;;;3.97;;
20671;SDS011;10495;50.922;4.760;2023-04-25T08:36:03;10.30;;;3.50;;
20671;SDS011;10495;50.922;4.760;2023-04-25T08:38:29;12.57;;;3.27;;
20671;SDS011;10495;50.922;4.760;2023-04-25T08:40:55;8.53;;;3.57;;
20671;SDS011;10495;50.922;4.760;2023-04-25T08:43:22;10.57;;;2.90;;
20671;SDS011;10495;50.922;4.760;2023-04-25T08:45:50;7.60;;;2.70;;
20671;SDS011;10495;50.922;4.760;2023-04-25T08:48:19;10.90;;;2.90;;
20671;SDS011;10495;50.922;4.760;2023-04-25T08:50:49;7.57;;;2.57;;
20671;SDS011;10495;50.922;4.760;2023-04-25T08:53:17;10.77;;;3.03;;
20671;SDS011;10495;50.922;4.760;2023-04-25T08:55:50;8.67;;;3.13;;
20671;SDS011;10495;50.922;4.760;2023-04-25T08:58:17;14.30;;;3.50;;
20671;SDS011;10495;50.922;4.760;2023-04-25T09:00:43;13.93;;;3.83;;
20671;SDS011;10495;50.922;4.760;2023-04-25T09:03:11;7.53;;;3.27;;
20671;SDS011;10495;50.922;4.760;2023-04-25T09:05:37;8.00;;;3.07;;
20671;SDS011;10495;50.922;4.760;2023-04-25T09:08:05;10.43;;;3.50;;
20671;SDS011;10495;50.922;4.760;2023-04-25T09:10:31;8.13;;;2.70;;
20671;SDS011;10495;50.922;4.760;2023-04-25T09:13:13;6.83;;;2.83;;
20671;SDS011;10495;50.922;4.760;2023-04-25T09:15:51;5.57;;;2.50;;
20671;SDS011;10495;50.922;4.760;2023-04-25T09:18:36;10.13;;;3.07;;
20671;SDS011;10495;50.922;4.760;2023-04-25T09:21:09;5.93;;;2.50;;
20671;SDS011;10495;50.922;4.760;2023-04-25T09:23:48;5.57;;;2.60;;
20671;SDS011;10495;50.922;4.760;2023-04-25T09:26:17;8.07;;;2.77;;
20671;SDS011;10495;50.922;4.760;2023-04-25T09:28:44;8.33;;;3.10;;
20671;SDS011;10495;50.922;4.760;2023-04-25T09:31:11;5.30;;;2.90;;
20671;SDS011;10495;50.922;4.760;2023-04-25T09:33:37;6.63;;;2.73;;
20671;SDS011;10495;50.922;4.760;2023-04-25T09:36:09;3.47;;;2.20;;
20671;SDS011;10495;50.922;4.760;2023-04-25T09:38:45;9.73;;;2.60;;
20671;SDS011;10495;50.922;4.760;2023-04-25T09:41:11;5.43;;;2.37;;
20671;SDS011;10495;50.922;4.760;2023-04-25T09:43:37;5.97;;;2.73;;
20671;SDS011;10495;50.922;4.760;2023-04-25T09:46:10;6.00;;;2.60;;
20671;SDS011;10495;50.922;4.760;2023-04-25T09:48:36;8.77;;;2.53;;
20671;SDS011;10495;50.922;4.760;2023-04-25T09:53:33;5.33;;;2.13;;
20671;SDS011;10495;50.922;4.760;2023-04-25T09:56:00;6.00;;;2.20;;
20671;SDS011;10495;50.922;4.760;2023-04-25T09:58:32;7.27;;;2.63;;
20671;SDS011;10495;50.922;4.760;2023-04-25T10:00:59;5.57;;;2.37;;
20671;SDS011;10495;50.922;4.760;2023-04-25T10:03:28;11.17;;;2.37;;
20671;SDS011;10495;50.922;4.760;2023-04-25T10:05:57;4.93;;;2.20;;
20671;SDS011;10495;50.922;4.760;2023-04-25T10:08:25;5.40;;;2.27;;
20671;SDS011;10495;50.922;4.760;2023-04-25T10:10:56;7.83;;;2.10;;
20671;SDS011;10495;50.922;4.760;2023-04-25T10:13:25;5.03;;;1.73;;
20671;SDS011;10495;50.922;4.760;2023-04-25T10:15:52;2.77;;;1.80;;
20671;SDS011;10495;50.922;4.760;2023-04-25T10:18:18;3.40;;;1.70;;
20671;SDS011;10495;50.922;4.760;2023-04-25T10:20:45;4.23;;;1.90;;
20671;SDS011;10495;50.922;4.760;2023-04-25T10:23:12;4.70;;;1.83;;
20671;SDS011;10495;50.922;4.760;2023-04-25T10:25:40;2.10;;;1.70;;
20671;SDS011;10495;50.922;4.760;2023-04-25T10:28:06;2.93;;;1.40;;
20671;SDS011;10495;50.922;4.760;2023-04-25T10:30:32;2.70;;;1.67;;
20671;SDS011;10495;50.922;4.760;2023-04-25T10:32:58;3.00;;;1.33;;
20671;SDS011;10495;50.922;4.760;2023-04-25T10:38:00;3.97;;;1.70;;
20671;SDS011;10495;50.922;4.760;2023-04-25T10:40:29;5.93;;;1.87;;
20671;SDS011;10495;50.922;4.760;2023-04-25T10:42:56;5.50;;;1.83;;
20671;SDS011;10495;50.922;4.760;2023-04-25T10:46:01;4.10;;;1.40;;
20671;SDS011;10495;50.922;4.760;2023-04-25T10:48:28;5.67;;;1.87;;
20671;SDS011;10495;50.922;4.760;2023-04-25T10:51:10;4.73;;;1.50;;
20671;SDS011;10495;50.922;4.760;2023-04-25T10:53:37;3.90;;;1.90;;
20671;SDS011;10495;50.922;4.760;2023-04-25T10:56:45;5.63;;;1.67;;
20671;SDS011;10495;50.922;4.760;2023-04-25T10:59:15;4.87;;;1.70;;
20671;SDS011;10495;50.922;4.760;2023-04-25T11:01:42;4.83;;;1.60;;
20671;SDS011;10495;50.922;4.760;2023-04-25T11:04:22;6.30;;;2.07;;
20671;SDS011;10495;50.922;4.760;2023-04-25T11:09:40;4.17;;;1.60;;
20671;SDS011;10495;50.922;4.760;2023-04-25T11:12:09;5.37;;;1.70;;
20671;SDS011;10495;50.922;4.760;2023-04-25T11:14:36;5.57;;;1.73;;
20671;SDS011;10495;50.922;4.760;2023-04-25T11:17:02;6.23;;;2.00;;
20671;SDS011;10495;50.922;4.760;2023-04-25T11:19:28;4.47;;;1.70;;
20671;SDS011;10495;50.922;4.760;2023-04-25T11:21:57;3.73;;;1.80;;
20671;SDS011;10495;50.922;4.760;2023-04-25T11:24:41;12.17;;;2.17;;
20671;SDS011;10495;50.922;4.760;2023-04-25T11:27:07;3.47;;;1.70;;
20671;SDS011;10495;50.922;4.760;2023-04-25T11:29:34;4.23;;;1.97;;
20671;SDS011;10495;50.922;4.760;2023-04-25T11:32:00;4.53;;;1.73;;
20671;SDS011;10495;50.922;4.760;2023-04-25T11:34:29;5.87;;;2.63;;
20671;SDS011;10495;50.922;4.760;2023-04-25T11:36:57;3.47;;;1.93;;
20671;SDS011;10495;50.922;4.760;2023-04-25T11:39:24;3.67;;;2.10;;
20671;SDS011;10495;50.922;4.760;2023-04-25T11:41:51;6.00;;;2.37;;
20671;SDS011;10495;50.922;4.760;2023-04-25T11:44:18;5.00;;;1.73;;
20671;SDS011;10495;50.922;4.760;2023-04-25T11:46:44;5.83;;;2.00;;
20671;SDS011;10495;50.922;4.760;2023-04-25T11:49:10;7.17;;;2.33;;
20671;SDS011;10495;50.922;4.760;2023-04-25T11:51:43;8.13;;;1.87;;
20671;SDS011;10495;50.922;4.760;2023-04-25T11:54:10;7.90;;;1.80;;
20671;SDS011;10495;50.922;4.760;2023-04-25T11:56:36;3.53;;;1.60;;
20671;SDS011;10495;50.922;4.760;2023-04-25T11:59:04;5.17;;;1.73;;
20671;SDS011;10495;50.922;4.760;2023-04-25T12:01:31;4.47;;;2.00;;
20671;SDS011;10495;50.922;4.760;2023-04-25T12:03:58;4.27;;;1.60;;
20671;SDS011;10495;50.922;4.760;2023-04-25T12:06:36;7.07;;;2.00;;
20671;SDS011;10495;50.922;4.760;2023-04-25T12:09:06;6.33;;;1.80;;
20671;SDS011;10495;50.922;4.760;2023-04-25T12:11:40;2.90;;;1.43;;
20671;SDS011;10495;50.922;4.760;2023-04-25T12:14:07;2.67;;;1.43;;
20671;SDS011;10495;50.922;4.760;2023-04-25T12:16:40;5.50;;;1.63;;
20671;SDS011;10495;50.922;4.760;2023-04-25T12:19:07;4.80;;;1.70;;
20671;SDS011;10495;50.922;4.760;2023-04-25T12:21:32;4.90;;;2.07;;
20671;SDS011;10495;50.922;4.760;2023-04-25T12:29:18;6.07;;;1.73;;
20671;SDS011;10495;50.922;4.760;2023-04-25T12:31:45;3.93;;;1.50;;
20671;SDS011;10495;50.922;4.760;2023-04-25T12:34:11;2.33;;;1.80;;
20671;SDS011;10495;50.922;4.760;2023-04-25T12:36:37;4.87;;;1.53;;
20671;SDS011;10495;50.922;4.760;2023-04-25T12:39:03;2.33;;;1.53;;
20671;SDS011;10495;50.922;4.760;2023-04-25T12:41:30;7.10;;;2.20;;
20671;SDS011;10495;50.922;4.760;2023-04-25T12:43:55;6.80;;;2.23;;
20671;SDS011;10495;50.922;4.760;2023-04-25T12:46:21;4.10;;;2.17;;
20671;SDS011;10495;50.922;4.760;2023-04-25T12:48:48;5.07;;;1.53;;
20671;SDS011;10495;50.922;4.760;2023-04-25T12:51:14;2.30;;;1.50;;
20671;SDS011;10495;50.922;4.760;2023-04-25T12:53:40;2.77;;;1.40;;
20671;SDS011;10495;50.922;4.760;2023-04-25T12:56:07;4.53;;;1.70;;
20671;SDS011;10495;50.922;4.760;2023-04-25T12:58:33;5.33;;;1.70;;
20671;SDS011;10495;50.922;4.760;2023-04-25T13:00:59;3.57;;;1.37;;
20671;SDS011;10495;50.922;4.760;2023-04-25T13:03:25;3.93;;;1.50;;
20671;SDS011;10495;50.922;4.760;2023-04-25T13:05:50;4.03;;;1.53;;
20671;SDS011;10495;50.922;4.760;2023-04-25T13:08:17;5.03;;;1.90;;
20671;SDS011;10495;50.922;4.760;2023-04-25T13:10:43;6.63;;;1.83;;
20671;SDS011;10495;50.922;4.760;2023-04-25T13:13:09;7.73;;;1.50;;
20671;SDS011;10495;50.922;4.760;2023-04-25T13:15:35;3.70;;;1.63;;
20671;SDS011;10495;50.922;4.760;2023-04-25T13:18:01;6.53;;;1.60;;
20671;SDS011;10495;50.922;4.760;2023-04-25T13:20:28;3.80;;;1.80;;
20671;SDS011;10495;50.922;4.760;2023-04-25T13:22:53;2.83;;;1.50;;
20671;SDS011;10495;50.922;4.760;2023-04-25T13:25:20;4.23;;;0.90;;
20671;SDS011;10495;50.922;4.760;2023-04-25T13:27:46;4.70;;;1.53;;
20671;SDS011;10495;50.922;4.760;2023-04-25T13:30:12;1.93;;;1.20;;
20671;SDS011;10495;50.922;4.760;2023-04-25T13:32:38;4.53;;;1.30;;
20671;SDS011;10495;50.922;4.760;2023-04-25T13:35:06;4.87;;;1.40;;
20671;SDS011;10495;50.922;4.760;2023-04-25T13:37:36;2.20;;;1.40;;
20671;SDS011;10495;50.922;4.760;2023-04-25T13:40:03;3.57;;;1.33;;
20671;SDS011;10495;50.922;4.760;2023-04-25T13:42:30;2.60;;;1.40;;
20671;SDS011;10495;50.922;4.760;2023-04-25T13:44:56;3.23;;;1.10;;
20671;SDS011;10495;50.922;4.760;2023-04-25T13:47:22;2.73;;;1.27;;
20671;SDS011;10495;50.922;4.760;2023-04-25T13:49:48;4.60;;;1.40;;
20671;SDS011;10495;50.922;4.760;2023-04-25T13:52:14;4.57;;;1.37;;
20671;SDS011;10495;50.922;4.760;2023-04-25T13:54:40;1.77;;;1.37;;
20671;SDS011;10495;50.922;4.760;2023-04-25T13:57:05;5.57;;;1.50;;
20671;SDS011;10495;50.922;4.760;2023-04-25T13:59:31;5.73;;;2.27;;
20671;SDS011;10495;50.922;4.760;2023-04-25T14:01:57;4.67;;;1.50;;
20671;SDS011;10495;50.922;4.760;2023-04-25T14:04:23;2.40;;;1.60;;
20671;SDS011;10495;50.922;4.760;2023-04-25T14:06:50;4.47;;;1.73;;
20671;SDS011;10495;50.922;4.760;2023-04-25T14:09:16;2.93;;;1.63;;
20671;SDS011;10495;50.922;4.760;2023-04-25T14:11:42;7.83;;;1.60;;
20671;SDS011;10495;50.922;4.760;2023-04-25T14:14:07;4.47;;;1.73;;
20671;SDS011;10495;50.922;4.760;2023-04-25T14:16:33;3.57;;;1.37;;
20671;SDS011;10495;50.922;4.760;2023-04-25T14:19:00;2.43;;;1.37;;
20671;SDS011;10495;50.922;4.760;2023-04-25T14:21:26;3.53;;;1.40;;
20671;SDS011;10495;50.922;4.760;2023-04-25T14:23:53;6.07;;;2.03;;
20671;SDS011;10495;50.922;4.760;2023-04-25T14:26:19;3.60;;;1.40;;
20671;SDS011;10495;50.922;4.760;2023-04-25T14:28:44;4.13;;;1.67;;
20671;SDS011;10495;50.922;4.760;2023-04-25T14:31:10;3.87;;;1.10;;
20671;SDS011;10495;50.922;4.760;2023-04-25T14:33:36;2.90;;;1.47;;
20671;SDS011;10495;50.922;4.760;2023-04-25T14:36:04;7.77;;;1.60;;
20671;SDS011;10495;50.922;4.760;2023-04-25T14:38:30;3.33;;;1.20;;
20671;SDS011;10495;50.922;4.760;2023-04-25T14:40:56;4.67;;;1.40;;
20671;SDS011;10495;50.922;4.760;2023-04-25T14:43:21;4.57;;;1.40;;
20671;SDS011;10495;50.922;4.760;2023-04-25T14:45:47;5.57;;;1.30;;
20671;SDS011;10495;50.922;4.760;2023-04-25T14:48:13;9.63;;;2.10;;
20671;SDS011;10495;50.922;4.760;2023-04-25T14:50:38;3.17;;;1.30;;
20671;SDS011;10495;50.922;4.760;2023-04-25T14:53:04;6.23;;;1.50;;
20671;SDS011;10495;50.922;4.760;2023-04-25T14:55:30;5.23;;;1.10;;